Attica, NY

11:19 AM EST on February 28, 2015 (GMT -0500)
Greater Rochester International | Change Station
CLOSE
Current Station
Airport
Location: Rochester,
Elevation: 554 ft
Nearby Weather Stations
Active Advisory: Winter Storm Watch

Elev 554 ft 43.12 °N, 77.68 °W | Updated 25 minutes ago

Clear
Clear
15 °F
Feels Like 2 °F
N
10
Wind Variable Wind from SW

Today
High -- | Low -- °F
--% Chance of Precip.
Yesterday
High -- | Low -- °F
Precip. -- in
6:50 AM 6:01 PM
Waxing Gibbous, 78% visible
Pressure 30.83 in
Visibility 10.0 miles
Clouds Clear
Windchill 2 °F
Dew Point 1 °F
Humidity 54%
Rainfall 0.00 in
Snow Depth Not available.
UV 4 out of 12
Pollen .40 out of 12
Air Quality Not available.
Flu Activity Not available.
METAR KROC 281554Z 23009KT 10SM CLR M09/M17 A3078 RMK AO2 SLP440 T10941172

More Conditions Fewer Conditions

Pressure 30.83 in
Visibility 10.0 miles
Clouds Clear
Windchill 2 °F
Dew Point 1 °F
Humidity 54%
Rainfall 0.00 in
Snow Depth Not available.
UV 4 out of 12
Pollen .40 out of 12
Air Quality Not available.
Flu Activity Not available.
METAR KROC 281554Z 23009KT 10SM CLR M09/M17 A3078 RMK AO2 SLP440 T10941172

More Conditions Fewer Conditions

10-Day Weather Forecast

Almanac

Astronomy

Feb. 28, 2015 Rise Set
Actual Time
Civil Twilight
Nautical Twilight
Astronomical Twilight
Moon
Length of Visible Light
Length of Day
Tomorrow will be .
, % of the Moon is Illuminated

Today's Extremes

State Highs State Lows

Community

WunderPhotos

Upload Photos

1,801,072 photos uploaded!

WunderBlogs® & News

Nearby

Air Quality

  Air Quality AQ Index Pollutant
Not available.

Snow Depth

Station Depth Elevation

Earthquake Activity

City Distance Mag. Time & Date
Minimum magnitude displayed is 2.5.

Coastal Water Temperatures

Place Temperature

Nearby Weather Stations

Winter Storm Watch
Statement as of 4:40 AM EST on February 28, 2015

... Winter Storm Watch remains in effect from late tonight through
Monday morning...

* locations... Chautauqua... Cattaraugus... Allegany... Wyoming...
and southern Erie counties.

* Timing... from late tonight through early Monday morning.

* Hazards... moderate to heavy accumulating snow.

* Accumulations... snow potentially accumulating 7 inches or more.

* Impacts... hazardous travel from snow covered roads and poor
visibility.

* Forecaster confidence... low to medium.

Precautionary/preparedness actions...

A Winter Storm Watch means that heavy snow and/or ice
accumulations are possible. If you are within the watch area...
remain alert to rapidly changing weather conditions.

Stay tuned to NOAA Weather Radio or your favorite source of
weather information for the latest updates. Additional details
can also be found at www.Weather.Gov/Buffalo.